Terminal Aerodrome Forecast
Issued by NWS

Current Version | Previous Version | Text Only | Print | Product List | Glossary On
Versions: 1 2 3 4 5 6 7 8 9 10 11 12 13 14 15 16 17 18 19 20 21 22 23 24 25 26
000 FTUS42 KRAH 222334 TAFRWI TAF KRWI 222334Z 2300/2324 07006KT P6SM SCT250 FM231500 10006KT P6SM SCT070 BKN120 FM232000 10005KT 6SM -RA BKN025 OVC070 FM232200 11007KT 3SM -RA BR OVC007=

USA.gov is the U.S. government's official web portal to all federal, state and local government web resources and services.